Terminal Aerodrome Forecast
Issued by NWS Portland, OR

Home | Current Version | Previous Version | Text Only | Print | Product List | Glossary On
Versions: 1 2 3 4 5 6 7 8 9 10 11 12 13 14 15 16 17 18 19 20 21 22 23 24 25 26 27 28 29 30 31 32 33 34
000
FTUS46 KPQR 181140
TAFAST
TAF
KAST 181140Z 1812/1912 21016G26KT 6SM -SHRA FEW030 BKN040 OVC090
     FM182100 21020G30KT P6SM -SHRA SCT020 BKN045
     FM190010 21012G22KT P6SM -SHRA BKN050=

USA.gov is the U.S. government's official web portal to all federal, state and local government web resources and services.